Time;durP1;ratioP1;P1;durP2;ratioP2;P2;SDS_P1;SDS_P2;PMS_P1;PMS_P2;Temp;Humidity;BMP_temperature;BMP_pressure;BME280_temperature;BME280_humidity;BME280_pressure;Samples;Min_cycle;Max_cycle;Signal;HPM_P1;HPM_P2
2020/12/13 00:00:43;;;;;;;7.43;3.50;;;8.90;89.30;;;;;;5036080;28;20370;-52
2020/12/13 00:03:09;;;;;;;9.82;4.88;;;8.90;89.30;;;;;;5034761;28;20021;-52
2020/12/13 00:05:35;;;;;;;10.27;5.72;;;8.90;89.30;;;;;;5016910;28;20037;-52
2020/12/13 00:08:01;;;;;;;10.15;4.85;;;8.90;89.20;;;;;;5029886;28;20076;-52
2020/12/13 00:10:27;;;;;;;10.30;5.50;;;8.90;89.40;;;;;;5036233;28;20441;-52
2020/12/13 00:12:52;;;;;;;11.18;5.93;;;8.90;89.20;;;;;;5035985;28;20024;-52
2020/12/13 00:15:18;;;;;;;9.65;4.95;;;8.90;89.20;;;;;;5015817;28;20067;-52
2020/12/13 00:17:45;;;;;;;10.35;5.65;;;8.90;89.20;;;;;;5017090;28;20026;-52
2020/12/13 00:20:10;;;;;;;9.18;4.85;;;8.90;89.20;;;;;;5016398;28;20042;-52
2020/12/13 00:22:36;;;;;;;9.05;5.60;;;8.90;89.20;;;;;;5016761;28;20104;-52
2020/12/13 00:25:02;;;;;;;9.02;5.50;;;8.90;89.40;;;;;;5016169;28;20439;-52
2020/12/13 00:27:28;;;;;;;11.65;5.72;;;8.90;89.30;;;;;;5023810;28;20049;-52
2020/12/13 00:29:54;;;;;;;8.48;5.10;;;8.90;89.30;;;;;;5035628;28;20026;-52
2020/12/13 00:32:19;;;;;;;10.55;5.18;;;8.90;89.20;;;;;;5036119;28;20053;-52
2020/12/13 00:34:45;;;;;;;11.45;5.03;;;8.90;89.30;;;;;;5035334;28;20064;-52
2020/12/13 00:37:11;;;;;;;7.60;4.40;;;8.90;89.50;;;;;;5035368;28;20025;-52
2020/12/13 00:39:38;;;;;;;8.15;5.32;;;8.90;89.40;;;;;;5035890;28;20029;-52
2020/12/13 00:42:05;;;;;;;8.20;4.78;;;8.90;89.40;;;;;;5035207;28;20041;-52
2020/12/13 00:44:30;;;;;;;10.73;4.72;;;8.90;89.40;;;;;;5033868;28;20359;-52
2020/12/13 00:46:56;;;;;;;8.40;4.47;;;8.90;89.40;;;;;;5018978;28;20021;-52
2020/12/13 00:49:22;;;;;;;9.75;5.65;;;8.90;89.40;;;;;;5035615;28;20029;-53
2020/12/13 00:51:47;;;;;;;9.63;5.43;;;8.90;89.60;;;;;;5035592;28;20112;-52
2020/12/13 00:54:13;;;;;;;8.40;4.50;;;8.90;89.40;;;;;;5035186;28;20077;-52
2020/12/13 00:56:39;;;;;;;8.20;4.65;;;8.90;89.40;;;;;;5034608;28;20447;-52
2020/12/13 00:59:04;;;;;;;10.48;5.60;;;8.90;89.30;;;;;;5015528;28;20076;-52
2020/12/13 01:01:30;;;;;;;10.60;5.43;;;8.90;89.40;;;;;;5015811;28;20033;-52
2020/12/13 01:03:56;;;;;;;9.45;5.07;;;8.90;89.40;;;;;;5016154;28;20432;-52
2020/12/13 01:06:23;;;;;;;8.70;5.35;;;8.90;89.30;;;;;;5030367;28;20362;-52
2020/12/13 01:08:49;;;;;;;9.55;5.20;;;8.90;89.20;;;;;;5034818;28;20108;-52
2020/12/13 01:11:24;;;;;;;6.53;4.55;;;8.90;89.30;;;;;;5035257;28;20418;-52
2020/12/13 01:13:50;;;;;;;9.77;4.95;;;8.90;89.20;;;;;;5031439;28;20029;-52
2020/12/13 01:16:17;;;;;;;9.23;5.32;;;8.90;89.40;;;;;;5035203;28;20087;-52
2020/12/13 01:18:43;;;;;;;9.75;5.03;;;8.90;89.30;;;;;;5034274;28;20026;-52
2020/12/13 01:21:30;;;;;;;7.85;4.55;;;8.90;89.20;;;;;;5034964;28;20045;-52
2020/12/13 01:23:56;;;;;;;8.95;5.10;;;8.90;89.20;;;;;;5034628;28;20025;-52
2020/12/13 01:26:24;;;;;;;8.27;4.95;;;8.90;89.30;;;;;;5034373;28;20038;-52
2020/12/13 01:28:50;;;;;;;10.23;5.32;;;8.90;89.30;;;;;;5017215;28;20038;-52
2020/12/13 01:31:18;;;;;;;10.07;4.88;;;8.90;89.30;;;;;;5015472;28;20359;-52
2020/12/13 01:33:45;;;;;;;9.00;5.25;;;8.90;89.40;;;;;;5015594;28;20029;-52
2020/12/13 01:36:19;;;;;;;9.70;4.85;;;8.90;89.20;;;;;;5014957;28;20168;-52
2020/12/13 01:38:45;;;;;;;8.55;5.10;;;8.90;89.30;;;;;;5031142;28;20032;-52
2020/12/13 01:41:12;;;;;;;10.00;5.03;;;8.90;90.00;;;;;;5020460;28;20042;-52
2020/12/13 01:43:38;;;;;;;9.25;4.53;;;8.90;89.30;;;;;;5015566;28;20033;-52
2020/12/13 01:46:05;;;;;;;9.10;4.90;;;8.90;89.20;;;;;;5014885;28;20030;-52
2020/12/13 01:48:31;;;;;;;10.13;5.20;;;8.90;89.40;;;;;;5033933;28;20466;-52
2020/12/13 01:51:12;;;;;;;10.93;5.65;;;8.90;89.30;;;;;;5034173;28;20451;-52
2020/12/13 01:53:38;;;;;;;10.10;5.43;;;8.90;89.20;;;;;;5033885;28;20033;-52
2020/12/13 01:56:05;;;;;;;10.52;4.72;;;8.90;89.30;;;;;;5034538;28;20041;-53
2020/12/13 01:58:38;;;;;;;9.80;5.97;;;9.00;89.20;;;;;;5018644;28;20367;-52
2020/12/13 02:01:07;;;;;;;11.02;5.05;;;9.00;89.50;;;;;;5012883;28;20038;-52
2020/12/13 02:03:41;;;;;;;11.88;6.18;;;8.90;89.40;;;;;;5020982;28;20026;-52
2020/12/13 02:06:14;;;;;;;9.18;5.00;;;8.90;89.40;;;;;;5034354;28;20033;-52
2020/12/13 02:08:40;;;;;;;9.93;4.95;;;8.90;89.20;;;;;;5015853;28;20057;-51
2020/12/13 02:11:07;;;;;;;12.15;5.75;;;8.90;89.40;;;;;;5015079;28;20022;-52
2020/12/13 02:13:34;;;;;;;12.55;5.25;;;8.90;89.40;;;;;;5020063;28;20108;-52
2020/12/13 02:16:00;;;;;;;13.55;5.18;;;8.90;89.30;;;;;;5015674;28;20030;-52
2020/12/13 02:18:29;;;;;;;8.05;4.65;;;8.90;89.20;;;;;;5030817;28;20037;-52
2020/12/13 02:20:56;;;;;;;10.55;5.05;;;8.90;89.40;;;;;;5034084;28;20096;-52
2020/12/13 02:23:22;;;;;;;10.32;5.25;;;8.90;89.20;;;;;;5034473;28;20382;-52
2020/12/13 02:25:49;;;;;;;8.63;4.75;;;8.90;89.30;;;;;;5034116;28;20037;-52
2020/12/13 02:28:14;;;;;;;8.90;5.18;;;8.90;89.10;;;;;;5019695;28;20026;-52
2020/12/13 02:30:40;;;;;;;8.23;4.55;;;8.90;89.20;;;;;;5014773;28;20155;-52
2020/12/13 02:33:07;;;;;;;11.20;5.07;;;8.90;89.20;;;;;;5014568;28;20099;-52
2020/12/13 02:35:33;;;;;;;9.73;5.28;;;8.90;89.20;;;;;;5023763;28;20037;-52
2020/12/13 02:37:58;;;;;;;9.18;5.38;;;8.90;89.30;;;;;;5022394;28;20033;-52
2020/12/13 02:40:24;;;;;;;11.10;5.55;;;8.90;89.20;;;;;;5027707;28;20041;-52
2020/12/13 02:42:50;;;;;;;10.32;5.35;;;8.90;89.40;;;;;;5037645;28;20038;-52
2020/12/13 02:45:16;;;;;;;8.02;4.75;;;8.90;89.30;;;;;;5037773;28;20028;-52
2020/12/13 02:47:41;;;;;;;8.68;4.95;;;8.90;89.30;;;;;;5037571;28;20037;-52
2020/12/13 02:50:07;;;;;;;14.55;5.57;;;8.90;89.40;;;;;;5037133;28;20454;-52
2020/12/13 02:52:33;;;;;;;9.30;5.05;;;8.90;89.30;;;;;;5037531;28;20033;-53
2020/12/13 02:54:59;;;;;;;8.68;4.95;;;8.90;89.20;;;;;;5037740;28;20362;-52
2020/12/13 02:57:25;;;;;;;10.00;5.05;;;8.90;89.10;;;;;;5035343;28;20122;-52
2020/12/13 02:59:50;;;;;;;8.27;5.30;;;8.90;89.10;;;;;;5018037;28;20041;-52
2020/12/13 03:02:16;;;;;;;9.77;5.22;;;8.90;90.00;;;;;;5017943;28;20061;-52
2020/12/13 03:04:41;;;;;;;8.48;5.00;;;8.90;89.40;;;;;;5037081;28;20052;-52
2020/12/13 03:07:09;;;;;;;8.63;4.85;;;8.90;89.20;;;;;;5028521;28;20175;-52
2020/12/13 03:09:36;;;;;;;10.93;4.78;;;8.90;89.30;;;;;;5018118;28;20037;-52
2020/12/13 03:12:02;;;;;;;10.10;4.40;;;8.90;89.40;;;;;;5017866;28;20025;-52
2020/12/13 03:14:28;;;;;;;8.90;5.32;;;8.90;89.10;;;;;;5030071;28;20030;-52
2020/12/13 03:16:53;;;;;;;8.40;4.18;;;8.90;89.30;;;;;;5036933;28;20025;-52
2020/12/13 03:19:19;;;;;;;7.47;4.25;;;8.90;89.30;;;;;;5037004;28;20029;-52
2020/12/13 03:21:44;;;;;;;10.60;5.40;;;8.90;89.30;;;;;;5036890;28;20112;-52
2020/12/13 03:24:11;;;;;;;8.75;5.07;;;8.90;89.30;;;;;;5037460;28;20462;-52
2020/12/13 03:26:37;;;;;;;10.15;5.57;;;8.90;89.30;;;;;;5032872;28;20041;-52
2020/12/13 03:29:02;;;;;;;9.50;4.93;;;9.00;89.50;;;;;;5017657;28;20026;-52
2020/12/13 03:31:28;;;;;;;10.20;5.20;;;8.90;89.20;;;;;;5027090;28;20057;-52
2020/12/13 03:33:54;;;;;;;7.15;4.28;;;8.90;89.40;;;;;;5037549;28;20049;-52
2020/12/13 03:36:19;;;;;;;10.82;5.07;;;8.90;89.50;;;;;;5035619;28;20040;-52
2020/12/13 03:38:45;;;;;;;10.57;4.60;;;8.90;89.20;;;;;;5017634;28;20030;-52
2020/12/13 03:41:10;;;;;;;10.32;5.45;;;8.90;89.30;;;;;;5017278;28;20448;-52
2020/12/13 03:43:36;;;;;;;8.45;4.82;;;8.90;89.30;;;;;;5017067;28;20022;-52
2020/12/13 03:46:02;;;;;;;9.50;4.88;;;8.90;89.20;;;;;;5017409;28;20467;-52
2020/12/13 03:48:27;;;;;;;6.28;3.90;;;8.90;89.30;;;;;;5035575;28;20029;-52
2020/12/13 03:50:53;;;;;;;8.55;5.07;;;8.90;89.30;;;;;;5036604;28;20049;-52
2020/12/13 03:53:19;;;;;;;7.28;4.32;;;8.90;89.20;;;;;;5036515;28;20480;-52
2020/12/13 03:55:45;;;;;;;7.95;4.38;;;8.90;89.10;;;;;;5036599;28;20026;-52
2020/12/13 03:58:10;;;;;;;8.43;4.38;;;8.90;89.20;;;;;;5019880;28;20072;-52
2020/12/13 04:00:36;;;;;;;12.30;5.25;;;8.90;89.30;;;;;;5016844;28;20041;-52
2020/12/13 04:03:04;;;;;;;7.95;3.95;;;8.90;89.30;;;;;;5016948;28;20018;-52
2020/12/13 04:05:31;;;;;;;8.18;4.40;;;9.00;89.40;;;;;;5016747;28;20030;-52
2020/12/13 04:07:57;;;;;;;9.07;4.45;;;9.00;89.20;;;;;;5030931;28;20033;-52
2020/12/13 04:10:25;;;;;;;8.25;4.18;;;8.90;89.60;;;;;;5036594;28;20025;-52
2020/12/13 04:12:51;;;;;;;10.32;4.28;;;8.90;89.40;;;;;;5036183;28;20031;-52
2020/12/13 04:15:17;;;;;;;8.23;3.95;;;8.90;89.40;;;;;;5016989;28;20084;-52
2020/12/13 04:17:44;;;;;;;8.95;4.68;;;8.90;89.30;;;;;;5028295;28;20049;-52
2020/12/13 04:20:10;;;;;;;9.93;4.70;;;8.90;89.30;;;;;;5034809;28;20042;-52
2020/12/13 04:22:36;;;;;;;7.72;4.18;;;8.90;89.30;;;;;;5016432;28;20022;-53
2020/12/13 04:25:02;;;;;;;11.35;4.55;;;9.00;89.40;;;;;;5023014;28;20410;-52
2020/12/13 04:27:28;;;;;;;7.68;4.70;;;8.90;89.40;;;;;;5025547;28;20038;-52
2020/12/13 04:29:54;;;;;;;10.32;4.40;;;8.90;89.30;;;;;;5016514;28;20026;-52
2020/12/13 04:32:19;;;;;;;8.40;4.45;;;8.90;89.30;;;;;;5016329;28;20034;-52
2020/12/13 04:34:45;;;;;;;8.73;4.78;;;8.90;89.40;;;;;;5015998;28;20072;-52
2020/12/13 04:37:11;;;;;;;10.05;5.38;;;8.90;89.20;;;;;;5023235;28;20037;-52
2020/12/13 04:39:36;;;;;;;10.57;5.03;;;8.90;89.20;;;;;;5035844;28;20060;-53
2020/12/13 04:42:05;;;;;;;10.82;5.03;;;8.90;89.50;;;;;;5035789;28;20033;-52
2020/12/13 04:44:31;;;;;;;11.30;5.55;;;8.90;90.00;;;;;;5035792;28;20070;-52
2020/12/13 04:47:03;;;;;;;10.48;5.40;;;8.90;89.30;;;;;;5030585;28;20414;-52
2020/12/13 04:49:31;;;;;;;7.93;4.43;;;8.90;89.40;;;;;;5016132;28;20022;-52
2020/12/13 04:51:59;;;;;;;12.52;5.13;;;8.90;89.30;;;;;;5015938;28;20096;-52
2020/12/13 04:54:26;;;;;;;9.60;4.88;;;8.90;89.20;;;;;;5034290;28;20033;-52
2020/12/13 04:56:53;;;;;;;9.65;4.65;;;8.90;89.40;;;;;;5031441;28;20066;-52
2020/12/13 04:59:19;;;;;;;9.98;5.35;;;8.90;89.40;;;;;;5015854;28;20100;-52
2020/12/13 05:01:45;;;;;;;11.82;4.03;;;9.00;89.40;;;;;;5014781;28;20062;-52
2020/12/13 05:04:11;;;;;;;10.27;4.43;;;9.00;89.50;;;;;;5015608;28;20117;-52
2020/12/13 05:06:39;;;;;;;12.02;5.53;;;9.00;89.50;;;;;;5016941;28;20104;-52
2020/12/13 05:09:06;;;;;;;10.60;5.13;;;9.00;89.40;;;;;;5033516;28;20122;-52
2020/12/13 05:11:32;;;;;;;10.13;4.65;;;8.90;89.40;;;;;;5035946;28;20032;-52
2020/12/13 05:13:58;;;;;;;9.57;4.25;;;8.90;89.30;;;;;;5035260;28;20422;-52
2020/12/13 05:16:23;;;;;;;6.55;4.13;;;8.90;89.40;;;;;;5034600;28;20499;-52
2020/12/13 05:18:52;;;;;;;8.00;4.07;;;8.90;89.40;;;;;;5016151;28;20053;-53
2020/12/13 05:21:22;;;;;;;8.82;4.20;;;9.00;89.30;;;;;;5030689;28;20075;-52
2020/12/13 05:23:51;;;;;;;8.77;3.65;;;8.90;89.40;;;;;;5034965;28;20025;-53
2020/12/13 05:26:21;;;;;;;11.68;5.03;;;9.00;89.20;;;;;;5031829;28;20033;-53
2020/12/13 05:28:50;;;;;;;;;;;9.00;89.20;;;;;;5030809;28;20033;-53
2020/12/13 05:31:19;;;;;;;8.88;4.25;;;8.90;89.10;;;;;;5015402;28;20000;-52
2020/12/13 05:34:07;;;;;;;7.63;4.38;;;9.00;89.10;;;;;;5015232;28;20026;-52
2020/12/13 05:36:36;;;;;;;6.75;4.10;;;9.00;89.10;;;;;;5017797;28;20041;-52
2020/12/13 05:39:03;;;;;;;8.60;4.80;;;8.90;89.20;;;;;;5034884;28;20382;-53
2020/12/13 05:41:36;;;;;;;8.95;4.20;;;9.00;89.30;;;;;;5034976;28;20030;-52
2020/12/13 05:51:41;;;;;;;9.57;4.82;;;9.00;89.00;;;;;;5035086;28;20116;-52
2020/12/13 05:54:25;;;;;;;8.02;4.03;;;9.00;89.20;;;;;;5034509;28;20029;-52
2020/12/13 05:56:59;;;;;;;10.23;4.43;;;9.00;89.00;;;;;;5028943;28;20037;-52
2020/12/13 05:59:26;;;;;;;10.40;4.70;;;9.00;89.00;;;;;;5015039;28;20026;-53
2020/12/13 06:01:56;;;;;;;8.65;4.63;;;9.00;89.10;;;;;;5015956;28;20069;-53
2020/12/13 06:04:27;;;;;;;9.65;4.85;;;9.00;89.00;;;;;;5014785;28;20037;-53
2020/12/13 06:07:02;;;;;;;8.95;4.72;;;9.00;88.90;;;;;;5020144;28;20030;-53
2020/12/13 06:09:39;;;;;;;8.85;4.07;;;9.00;89.10;;;;;;5034233;28;20111;-52
2020/12/13 06:12:11;;;;;;;9.02;3.63;;;9.00;89.10;;;;;;5034683;28;20024;-53
2020/12/13 06:14:37;;;;;;;9.57;3.85;;;9.00;89.00;;;;;;5020101;28;20110;-53
2020/12/13 06:17:03;;;;;;;8.85;3.28;;;9.00;89.00;;;;;;5018291;28;20180;-52
2020/12/13 06:19:33;;;;;;;11.90;4.28;;;9.00;89.10;;;;;;5033851;28;20458;-53
2020/12/13 06:22:01;;;;;;;11.07;5.03;;;9.00;88.90;;;;;;5033751;28;20383;-53
2020/12/13 06:24:27;;;;;;;11.13;5.50;;;9.00;88.90;;;;;;5053971;28;20032;-53
2020/12/13 06:26:53;;;;;;;8.50;4.45;;;9.00;89.00;;;;;;5033941;28;20375;-53
2020/12/13 06:29:21;;;;;;;9.70;4.18;;;9.00;89.10;;;;;;5034041;28;20056;-53
2020/12/13 06:31:47;;;;;;;8.60;4.10;;;9.00;89.10;;;;;;5033593;28;20386;-52
2020/12/13 06:34:13;;;;;;;8.50;5.18;;;9.00;89.30;;;;;;5014647;28;20148;-52
2020/12/13 06:36:39;;;;;;;11.07;5.35;;;9.00;89.20;;;;;;5020831;28;20069;-53
2020/12/13 06:39:14;;;;;;;10.35;4.53;;;9.00;89.20;;;;;;5033958;28;20033;-52
2020/12/13 06:41:51;;;;;;;7.65;3.75;;;9.00;89.00;;;;;;5014650;28;20038;-53
2020/12/13 06:44:18;;;;;;;6.20;3.55;;;9.00;89.10;;;;;;5030501;28;20026;-53
2020/12/13 06:46:46;;;;;;;9.32;4.43;;;9.00;89.00;;;;;;5023893;28;20113;-52
2020/12/13 06:49:14;;;;;;;10.93;4.75;;;9.00;89.20;;;;;;5023599;28;20044;-53
2020/12/13 06:51:41;;;;;;;8.98;4.75;;;9.00;89.10;;;;;;5024045;28;20022;-52
2020/12/13 06:54:10;;;;;;;9.45;4.75;;;9.00;89.30;;;;;;5022556;28;20525;-52
2020/12/13 06:56:36;;;;;;;10.90;4.88;;;9.00;89.10;;;;;;5024154;28;20036;-53
2020/12/13 06:59:05;;;;;;;6.50;3.65;;;9.00;89.00;;;;;;5023978;28;20029;-53
2020/12/13 07:01:34;;;;;;;9.07;4.78;;;9.00;89.10;;;;;;5022142;28;20038;-52
2020/12/13 07:04:21;;;;;;;7.65;3.85;;;9.00;89.30;;;;;;5022892;28;20018;-53
2020/12/13 07:09:24;;;;;;;9.20;4.50;;;9.00;89.00;;;;;;5021046;28;20030;-53
2020/12/13 07:11:51;;;;;;;9.02;4.80;;;9.00;89.10;;;;;;5021965;28;20598;-53
2020/12/13 07:14:18;;;;;;;7.88;4.03;;;9.00;88.90;;;;;;5022572;28;20033;-53
2020/12/13 07:16:47;;;;;;;6.50;3.67;;;9.10;89.10;;;;;;5024211;28;20022;-53
2020/12/13 07:19:17;;;;;;;7.53;4.13;;;9.00;89.00;;;;;;5013915;28;20060;-53
2020/12/13 07:21:44;;;;;;;9.20;4.63;;;9.10;89.10;;;;;;5030413;28;20036;-53
2020/12/13 07:24:11;;;;;;;9.48;4.68;;;9.00;89.00;;;;;;5016110;28;20372;-53
2020/12/13 07:26:38;;;;;;;8.40;3.97;;;9.10;89.20;;;;;;5018036;28;20030;-53
2020/12/13 07:29:13;;;;;;;9.45;4.70;;;9.10;89.80;;;;;;5022325;28;20390;-52
2020/12/13 07:31:44;;;;;;;7.50;4.30;;;9.10;89.00;;;;;;5021426;28;20041;-53
2020/12/13 07:34:10;;;;;;;8.40;4.50;;;9.10;89.10;;;;;;5020141;28;20034;-53
2020/12/13 07:36:35;;;;;;;10.15;4.57;;;9.10;89.20;;;;;;5017551;28;20049;-53
2020/12/13 07:39:04;;;;;;;7.22;4.30;;;9.10;89.40;;;;;;5029020;28;20027;-53
2020/12/13 07:41:30;;;;;;;8.70;4.30;;;9.10;89.20;;;;;;5037103;28;20037;-53
2020/12/13 07:44:00;;;;;;;6.88;3.88;;;9.10;89.10;;;;;;5036108;28;20505;-52
2020/12/13 07:46:28;;;;;;;8.25;4.25;;;9.10;89.20;;;;;;5019837;28;20061;-53
2020/12/13 07:49:20;;;;;;;4.38;3.00;;;9.10;89.10;;;;;;5017219;28;20038;-52
2020/12/13 07:51:48;;;;;;;7.13;3.60;;;9.10;89.20;;;;;;5017464;28;20356;-53
2020/12/13 07:54:17;;;;;;;6.72;3.30;;;9.10;89.10;;;;;;5030775;28;20033;-53
2020/12/13 07:56:44;;;;;;;7.15;4.18;;;9.10;89.90;;;;;;5018044;28;20026;-53
2020/12/13 07:59:12;;;;;;;5.88;3.17;;;9.10;89.20;;;;;;5021238;28;20030;-53
2020/12/13 08:01:39;;;;;;;8.23;3.22;;;9.10;89.30;;;;;;5035241;28;20124;-54
2020/12/13 08:04:04;;;;;;;8.80;3.60;;;9.10;89.30;;;;;;5020288;28;20029;-53
2020/12/13 08:06:30;;;;;;;5.95;3.72;;;9.10;89.10;;;;;;5024673;28;20084;-53
2020/12/13 08:08:56;;;;;;;6.03;3.53;;;9.10;89.20;;;;;;5026704;28;20417;-52
2020/12/13 08:11:22;;;;;;;5.68;3.28;;;9.10;89.10;;;;;;5020508;28;20407;-53
2020/12/13 08:13:50;;;;;;;7.28;3.55;;;9.10;89.20;;;;;;5029481;28;20386;-53
2020/12/13 08:16:17;;;;;;;6.70;3.55;;;9.10;89.40;;;;;;5018981;28;20032;-53
2020/12/13 08:18:48;;;;;;;6.30;3.38;;;9.10;89.40;;;;;;5032212;28;20033;-53
2020/12/13 08:21:42;;;;;;;7.20;3.75;;;9.10;89.40;;;;;;5033649;28;20041;-53
2020/12/13 08:24:11;;;;;;;6.28;3.55;;;9.10;89.50;;;;;;5041994;28;20038;-53
2020/12/13 08:26:36;;;;;;;4.95;2.78;;;9.10;89.20;;;;;;5025435;28;20037;-53
2020/12/13 08:29:03;;;;;;;5.97;3.42;;;9.10;89.40;;;;;;5033162;28;20508;-53
2020/12/13 08:31:30;;;;;;;3.38;2.55;;;9.10;89.30;;;;;;5017615;28;20033;-53
2020/12/13 08:34:05;;;;;;;6.03;3.30;;;9.10;89.10;;;;;;5033721;28;20390;-53
2020/12/13 08:36:33;;;;;;;6.90;2.85;;;9.10;89.40;;;;;;5034299;28;20083;-53
2020/12/13 08:39:24;;;;;;;6.30;3.53;;;9.10;89.40;;;;;;5034551;28;20061;-52
2020/12/13 08:41:50;;;;;;;6.63;3.47;;;9.10;89.20;;;;;;5015964;28;20091;-53
2020/12/13 08:44:40;;;;;;;5.72;3.40;;;9.10;89.40;;;;;;5026950;28;20108;-53
2020/12/13 08:47:07;;;;;;;;;;;9.10;89.30;;;;;;5021769;28;20026;-53
2020/12/13 08:49:38;;;;;;;4.85;2.35;;;9.20;89.10;;;;;;5018813;28;19913;-53
2020/12/13 08:52:22;;;;;;;5.72;3.42;;;9.10;89.20;;;;;;5016474;28;20084;-53
2020/12/13 08:54:51;;;;;;;6.07;3.15;;;9.20;89.40;;;;;;5019917;28;20104;-53
2020/12/13 08:57:26;;;;;;;7.35;3.88;;;9.20;89.60;;;;;;5035576;28;20053;-53
2020/12/13 09:00:10;;;;;;;3.88;2.58;;;9.20;89.50;;;;;;5033603;28;20041;-53
2020/12/13 09:02:36;;;;;;;4.60;2.78;;;9.20;89.30;;;;;;5015854;28;20026;-53
2020/12/13 09:05:06;;;;;;;5.43;3.20;;;9.20;89.30;;;;;;5022854;28;20490;-52
2020/12/13 09:07:32;;;;;;;8.38;3.15;;;9.20;89.30;;;;;;5018234;28;20102;-53
2020/12/13 09:10:12;;;;;;;6.13;3.88;;;9.20;89.30;;;;;;5021924;28;20029;-52
2020/12/13 09:12:40;;;;;;;9.02;3.80;;;9.20;89.40;;;;;;5018778;28;20030;-53
2020/12/13 09:15:15;;;;;;;6.22;3.25;;;9.30;89.40;;;;;;5022357;28;20038;-52
2020/12/13 09:17:50;;;;;;;6.82;3.47;;;9.20;89.20;;;;;;5026771;28;20383;-53
2020/12/13 09:20:23;;;;;;;5.05;3.05;;;9.20;89.20;;;;;;5024676;28;20475;-53
2020/12/13 09:23:22;;;;;;;8.05;3.83;;;9.20;89.40;;;;;;5024531;28;20025;-53
2020/12/13 09:25:51;;;;;;;5.70;3.47;;;9.20;89.50;;;;;;5025455;28;20129;-53
2020/12/13 09:28:17;;;;;;;5.20;2.92;;;9.20;89.50;;;;;;5021350;28;20038;-52
2020/12/13 09:30:44;;;;;;;6.28;3.50;;;9.30;89.70;;;;;;5022668;28;20025;-53
2020/12/13 09:33:11;;;;;;;7.45;4.03;;;9.30;89.90;;;;;;5019448;28;20030;-54
2020/12/13 09:35:37;;;;;;;7.55;4.22;;;9.30;89.70;;;;;;5023231;28;20477;-53
2020/12/13 09:38:05;;;;;;;4.95;3.45;;;9.30;89.90;;;;;;5025483;28;20448;-53
2020/12/13 09:40:32;;;;;;;9.02;3.97;;;9.30;89.80;;;;;;5027211;28;20068;-53
2020/12/13 09:42:58;;;;;;;7.60;3.83;;;9.30;90.10;;;;;;5024253;28;20097;-53
2020/12/13 09:45:24;;;;;;;4.90;3.10;;;9.30;89.90;;;;;;5027781;28;20033;-53
2020/12/13 09:47:50;;;;;;;6.72;3.30;;;9.30;89.60;;;;;;5020185;28;20027;-53
2020/12/13 09:50:21;;;;;;;6.47;3.47;;;9.30;90.10;;;;;;5023841;28;20032;-53
2020/12/13 09:52:47;;;;;;;5.57;3.45;;;9.30;90.10;;;;;;5023075;28;20041;-53
2020/12/13 09:55:12;;;;;;;6.28;3.55;;;9.30;90.10;;;;;;5017733;28;20029;-53
2020/12/13 09:57:38;;;;;;;8.18;3.95;;;9.40;90.00;;;;;;5024491;28;20033;-53
2020/12/13 10:00:05;;;;;;;5.40;3.45;;;9.40;90.00;;;;;;5022694;28;20474;-53
2020/12/13 10:02:30;;;;;;;3.80;2.38;;;9.40;90.00;;;;;;5022909;28;20021;-53
2020/12/13 10:04:56;;;;;;;6.03;3.47;;;9.40;90.00;;;;;;5022421;28;20355;-53
2020/12/13 10:10:06;;;;;;;6.35;2.97;;;9.40;90.20;;;;;;5028366;28;20052;-53
2020/12/13 10:12:31;;;;;;;6.30;2.85;;;9.40;90.20;;;;;;5023085;28;20447;-53
2020/12/13 10:14:57;;;;;;;4.57;2.70;;;9.40;90.10;;;;;;5021162;28;20083;-53
2020/12/13 10:17:23;;;;;;;3.75;2.50;;;9.40;90.10;;;;;;5017352;28;20121;-53
2020/12/13 10:19:48;;;;;;;6.80;2.25;;;9.40;90.20;;;;;;5017403;28;20112;-53
2020/12/13 10:22:14;;;;;;;3.28;2.10;;;9.40;90.00;;;;;;5023713;28;20033;-53
2020/12/13 10:24:39;;;;;;;3.58;2.55;;;9.40;90.10;;;;;;5023334;28;20025;-53
2020/12/13 10:27:05;;;;;;;3.28;1.88;;;9.40;90.20;;;;;;5020619;28;20032;-53
2020/12/13 10:29:31;;;;;;;3.97;2.45;;;9.40;90.10;;;;;;5025665;28;20093;-53
2020/12/13 10:31:56;;;;;;;4.65;1.90;;;9.40;90.20;;;;;;5020693;28;20466;-53
2020/12/13 10:34:22;;;;;;;3.75;2.22;;;9.40;90.40;;;;;;5017229;28;20367;-53
2020/12/13 10:36:49;;;;;;;4.15;2.38;;;9.40;90.30;;;;;;5042933;28;20095;-53
2020/12/13 10:39:19;;;;;;;4.65;2.50;;;9.40;90.20;;;;;;5012062;28;20033;-53
2020/12/13 10:41:45;;;;;;;5.75;2.53;;;9.40;90.30;;;;;;5028539;28;20493;-53
2020/12/13 10:44:14;;;;;;;3.95;2.63;;;9.40;90.20;;;;;;5022484;28;20034;-53
2020/12/13 10:46:40;;;;;;;5.47;2.72;;;9.40;90.20;;;;;;5024273;28;20340;-53
2020/12/13 10:49:05;;;;;;;4.85;2.88;;;9.40;90.20;;;;;;5023745;28;20083;-53
2020/12/13 10:51:31;;;;;;;5.35;2.47;;;9.40;90.20;;;;;;5022266;28;20091;-53
2020/12/13 10:53:56;;;;;;;3.58;2.50;;;9.40;90.30;;;;;;5022116;28;20367;-53
2020/12/13 10:56:23;;;;;;;4.80;3.30;;;9.40;90.10;;;;;;5021079;28;20088;-53
2020/12/13 10:58:48;;;;;;;5.38;2.78;;;9.40;90.30;;;;;;5022431;28;20037;-52
2020/12/13 11:01:16;;;;;;;4.93;2.92;;;9.40;90.30;;;;;;5023265;28;20447;-53
2020/12/13 11:03:42;;;;;;;4.30;2.85;;;9.40;90.40;;;;;;5023903;28;20040;-53
2020/12/13 11:06:09;;;;;;;6.40;3.15;;;9.40;90.40;;;;;;5028839;28;20025;-53
2020/12/13 11:08:35;;;;;;;4.95;2.85;;;9.40;90.20;;;;;;5023688;28;20018;-53
2020/12/13 11:11:00;;;;;;;4.05;3.00;;;9.40;90.40;;;;;;5027987;28;20022;-53
2020/12/13 11:13:26;;;;;;;6.70;3.28;;;9.40;90.40;;;;;;5027619;28;20065;-53
2020/12/13 11:15:52;;;;;;;5.47;3.00;;;9.40;90.40;;;;;;5024467;28;20074;-53
2020/12/13 11:18:19;;;;;;;6.97;4.05;;;9.40;90.40;;;;;;5026759;28;20443;-53
2020/12/13 11:20:45;;;;;;;5.72;3.38;;;9.40;90.30;;;;;;5031074;28;20037;-53
2020/12/13 11:23:10;;;;;;;5.65;3.17;;;9.40;90.40;;;;;;5019933;28;20057;-52
2020/12/13 11:25:36;;;;;;;6.30;2.75;;;9.40;90.40;;;;;;5027719;28;20370;-53
2020/12/13 11:28:04;;;;;;;6.88;3.75;;;9.40;90.40;;;;;;5028330;28;20351;-53
2020/12/13 11:30:30;;;;;;;3.60;2.50;;;9.40;90.40;;;;;;5029305;28;20083;-53
2020/12/13 11:32:56;;;;;;;5.20;3.17;;;9.40;90.50;;;;;;5021231;28;20109;-53
2020/12/13 11:35:21;;;;;;;3.70;2.88;;;9.40;90.50;;;;;;5032911;28;20029;-53
2020/12/13 11:37:47;;;;;;;7.40;3.35;;;9.40;90.40;;;;;;5033356;28;20026;-53
2020/12/13 11:40:13;;;;;;;7.25;2.97;;;9.40;90.40;;;;;;5021127;28;20041;-53
2020/12/13 11:42:39;;;;;;;4.28;2.47;;;9.40;90.50;;;;;;5027526;28;20469;-53
2020/12/13 11:45:06;;;;;;;6.03;3.03;;;9.40;90.40;;;;;;5030889;28;20589;-53
2020/12/13 11:47:32;;;;;;;4.75;2.92;;;9.40;90.40;;;;;;5028026;28;20025;-53
2020/12/13 11:49:58;;;;;;;4.18;2.40;;;9.40;90.50;;;;;;5034333;28;20041;-53
2020/12/13 11:52:24;;;;;;;5.43;3.15;;;9.40;90.40;;;;;;5021279;28;20049;-53
2020/12/13 11:54:49;;;;;;;6.72;3.15;;;9.40;90.40;;;;;;5028008;28;20029;-53
2020/12/13 11:57:15;;;;;;;5.05;2.10;;;9.40;90.30;;;;;;5025072;28;20063;-53
2020/12/13 11:59:40;;;;;;;4.90;3.33;;;9.40;90.90;;;;;;5023828;28;20367;-53
2020/12/13 12:02:07;;;;;;;7.13;3.75;;;9.40;90.60;;;;;;5030031;28;20064;-53
2020/12/13 12:04:35;;;;;;;3.72;2.58;;;9.40;90.30;;;;;;5023308;28;20033;-53
2020/12/13 12:07:02;;;;;;;5.00;2.90;;;9.40;89.80;;;;;;5019714;28;20045;-53
2020/12/13 12:09:28;;;;;;;5.28;2.97;;;9.30;89.30;;;;;;5024201;28;20021;-52
2020/12/13 12:11:53;;;;;;;4.47;2.80;;;9.20;89.60;;;;;;5023742;28;20018;-52
2020/12/13 12:14:19;;;;;;;4.45;3.08;;;9.10;89.30;;;;;;5029983;28;20443;-52
2020/12/13 12:16:45;;;;;;;4.65;2.60;;;9.00;89.40;;;;;;5020137;28;20448;-53
2020/12/13 12:19:11;;;;;;;6.35;2.97;;;8.90;90.10;;;;;;5030488;28;20034;-53
2020/12/13 12:21:44;;;;;;;6.93;3.30;;;8.90;90.10;;;;;;5025268;28;20065;-52
2020/12/13 12:24:17;;;;;;;5.93;3.83;;;8.80;90.20;;;;;;5024193;28;20037;-53
2020/12/13 12:26:43;;;;;;;5.30;3.05;;;8.80;90.10;;;;;;5032414;28;20026;-52
2020/12/13 12:29:09;;;;;;;4.32;2.88;;;8.80;90.20;;;;;;5021225;28;20060;-52
2020/12/13 12:31:36;;;;;;;5.78;2.88;;;8.70;90.30;;;;;;5021930;28;20030;-52
2020/12/13 12:34:02;;;;;;;4.90;3.28;;;8.70;90.30;;;;;;5024135;28;20466;-52
2020/12/13 12:36:28;;;;;;;5.00;3.15;;;8.70;90.50;;;;;;5022868;28;20029;-52
2020/12/13 12:38:55;;;;;;;7.13;3.63;;;8.70;90.40;;;;;;5023692;28;20025;-52
2020/12/13 12:41:22;;;;;;;3.45;2.53;;;8.60;90.40;;;;;;5016774;28;20111;-52
2020/12/13 12:43:49;;;;;;;5.63;2.95;;;8.60;90.50;;;;;;5020237;28;20467;-52
2020/12/13 12:46:16;;;;;;;4.72;2.97;;;8.60;90.60;;;;;;5022428;28;20037;-52
2020/12/13 12:48:47;;;;;;;7.03;2.97;;;8.60;90.60;;;;;;5025579;28;20029;-52
2020/12/13 12:51:13;;;;;;;5.28;3.00;;;8.60;90.60;;;;;;5019157;28;20052;-52
2020/12/13 12:53:39;;;;;;;10.48;2.90;;;8.60;90.70;;;;;;5023566;28;20364;-52
2020/12/13 12:56:09;;;;;;;5.28;2.33;;;8.50;90.50;;;;;;5021209;28;20036;-52
2020/12/13 12:58:43;;;;;;;3.90;2.72;;;8.50;90.60;;;;;;5017830;28;20053;-52
2020/12/13 13:01:18;;;;;;;4.70;3.00;;;8.50;90.60;;;;;;5028563;28;20125;-54
2020/12/13 13:03:46;;;;;;;8.13;3.38;;;8.50;90.40;;;;;;5022039;28;20025;-52
2020/12/13 13:06:29;;;;;;;5.38;3.22;;;8.60;91.20;;;;;;5034600;28;20033;-52
2020/12/13 13:09:08;;;;;;;8.77;4.30;;;8.60;90.60;;;;;;5019202;28;20021;-52
2020/12/13 13:11:37;;;;;;;5.53;3.37;;;8.60;90.60;;;;;;5028299;28;20022;-52